sensor_id;sensor_type;location;lat;lon;timestamp;P1;durP1;ratioP1;P2;durP2;ratioP2
34499;SDS011;20745;50.882;6.962;2022-09-13T00:01:27;13.20;;;4.35;;
34499;SDS011;20745;50.882;6.962;2022-09-13T00:03:54;14.52;;;4.50;;
34499;SDS011;20745;50.882;6.962;2022-09-13T00:06:21;14.85;;;4.22;;
34499;SDS011;20745;50.882;6.962;2022-09-13T00:08:48;10.70;;;4.00;;
34499;SDS011;20745;50.882;6.962;2022-09-13T00:11:16;13.32;;;4.40;;
34499;SDS011;20745;50.882;6.962;2022-09-13T00:13:46;15.73;;;4.60;;
34499;SDS011;20745;50.882;6.962;2022-09-13T00:16:14;14.10;;;4.35;;
34499;SDS011;20745;50.882;6.962;2022-09-13T00:18:43;11.00;;;3.80;;
34499;SDS011;20745;50.882;6.962;2022-09-13T00:21:11;13.82;;;4.55;;
34499;SDS011;20745;50.882;6.962;2022-09-13T00:23:42;14.23;;;4.57;;
34499;SDS011;20745;50.882;6.962;2022-09-13T00:26:12;11.75;;;4.10;;
34499;SDS011;20745;50.882;6.962;2022-09-13T00:28:40;13.70;;;4.28;;
34499;SDS011;20745;50.882;6.962;2022-09-13T00:31:08;13.57;;;4.18;;
34499;SDS011;20745;50.882;6.962;2022-09-13T00:33:35;11.63;;;4.15;;
34499;SDS011;20745;50.882;6.962;2022-09-13T00:36:06;13.93;;;4.35;;
34499;SDS011;20745;50.882;6.962;2022-09-13T00:38:35;11.85;;;3.88;;
34499;SDS011;20745;50.882;6.962;2022-09-13T00:41:07;14.55;;;4.30;;
34499;SDS011;20745;50.882;6.962;2022-09-13T00:43:42;11.20;;;4.43;;
34499;SDS011;20745;50.882;6.962;2022-09-13T00:46:27;11.45;;;4.40;;
34499;SDS011;20745;50.882;6.962;2022-09-13T00:49:18;14.85;;;4.20;;
34499;SDS011;20745;50.882;6.962;2022-09-13T00:51:51;13.20;;;4.40;;
34499;SDS011;20745;50.882;6.962;2022-09-13T00:54:23;12.70;;;4.22;;
34499;SDS011;20745;50.882;6.962;2022-09-13T00:56:54;14.25;;;4.80;;
34499;SDS011;20745;50.882;6.962;2022-09-13T00:59:29;13.98;;;4.50;;
34499;SDS011;20745;50.882;6.962;2022-09-13T01:02:19;12.65;;;4.70;;
34499;SDS011;20745;50.882;6.962;2022-09-13T01:04:46;13.80;;;4.85;;
34499;SDS011;20745;50.882;6.962;2022-09-13T01:07:14;13.75;;;4.78;;
34499;SDS011;20745;50.882;6.962;2022-09-13T01:09:45;13.63;;;5.13;;
34499;SDS011;20745;50.882;6.962;2022-09-13T01:15:22;12.70;;;4.53;;
34499;SDS011;20745;50.882;6.962;2022-09-13T01:17:51;12.60;;;4.90;;
34499;SDS011;20745;50.882;6.962;2022-09-13T01:20:18;14.15;;;5.18;;
34499;SDS011;20745;50.882;6.962;2022-09-13T01:23:05;16.70;;;5.13;;
34499;SDS011;20745;50.882;6.962;2022-09-13T01:25:58;14.13;;;5.13;;
34499;SDS011;20745;50.882;6.962;2022-09-13T01:29:04;14.07;;;4.85;;
34499;SDS011;20745;50.882;6.962;2022-09-13T01:39:16;15.43;;;5.55;;
34499;SDS011;20745;50.882;6.962;2022-09-13T01:44:56;14.60;;;5.00;;
34499;SDS011;20745;50.882;6.962;2022-09-13T01:47:57;15.32;;;5.13;;
34499;SDS011;20745;50.882;6.962;2022-09-13T01:51:02;12.20;;;4.45;;
34499;SDS011;20745;50.882;6.962;2022-09-13T01:59:03;15.35;;;4.72;;
34499;SDS011;20745;50.882;6.962;2022-09-13T02:01:38;11.38;;;4.38;;
34499;SDS011;20745;50.882;6.962;2022-09-13T02:04:13;14.65;;;4.68;;
34499;SDS011;20745;50.882;6.962;2022-09-13T02:06:49;15.15;;;4.68;;
34499;SDS011;20745;50.882;6.962;2022-09-13T02:09:23;13.23;;;4.65;;
34499;SDS011;20745;50.882;6.962;2022-09-13T02:11:55;12.93;;;4.68;;
34499;SDS011;20745;50.882;6.962;2022-09-13T02:14:35;17.05;;;4.70;;
34499;SDS011;20745;50.882;6.962;2022-09-13T02:17:17;14.27;;;4.50;;
34499;SDS011;20745;50.882;6.962;2022-09-13T02:19:54;12.27;;;4.60;;
34499;SDS011;20745;50.882;6.962;2022-09-13T02:22:31;16.85;;;4.82;;
34499;SDS011;20745;50.882;6.962;2022-09-13T02:25:04;14.68;;;4.95;;
34499;SDS011;20745;50.882;6.962;2022-09-13T02:27:34;14.27;;;5.00;;
34499;SDS011;20745;50.882;6.962;2022-09-13T02:35:24;13.10;;;4.70;;
34499;SDS011;20745;50.882;6.962;2022-09-13T02:38:10;13.02;;;4.80;;
34499;SDS011;20745;50.882;6.962;2022-09-13T02:40:44;13.15;;;4.45;;
34499;SDS011;20745;50.882;6.962;2022-09-13T02:43:17;13.40;;;4.47;;
34499;SDS011;20745;50.882;6.962;2022-09-13T02:45:52;13.15;;;4.85;;
34499;SDS011;20745;50.882;6.962;2022-09-13T02:48:55;15.48;;;4.32;;
34499;SDS011;20745;50.882;6.962;2022-09-13T02:54:22;11.75;;;4.53;;
34499;SDS011;20745;50.882;6.962;2022-09-13T02:57:06;14.45;;;5.20;;
34499;SDS011;20745;50.882;6.962;2022-09-13T02:59:38;14.02;;;4.95;;
34499;SDS011;20745;50.882;6.962;2022-09-13T03:02:06;15.07;;;5.40;;
34499;SDS011;20745;50.882;6.962;2022-09-13T03:04:37;15.63;;;4.68;;
34499;SDS011;20745;50.882;6.962;2022-09-13T03:07:05;13.80;;;4.50;;
34499;SDS011;20745;50.882;6.962;2022-09-13T03:09:41;12.98;;;4.47;;
34499;SDS011;20745;50.882;6.962;2022-09-13T03:15:06;11.20;;;4.55;;
34499;SDS011;20745;50.882;6.962;2022-09-13T03:18:04;11.60;;;4.60;;
34499;SDS011;20745;50.882;6.962;2022-09-13T03:24:05;13.15;;;4.57;;
34499;SDS011;20745;50.882;6.962;2022-09-13T03:29:57;12.82;;;4.47;;
34499;SDS011;20745;50.882;6.962;2022-09-13T03:32:34;11.38;;;4.10;;
34499;SDS011;20745;50.882;6.962;2022-09-13T03:35:21;12.00;;;4.57;;
34499;SDS011;20745;50.882;6.962;2022-09-13T03:38:05;12.52;;;4.53;;
34499;SDS011;20745;50.882;6.962;2022-09-13T03:40:39;12.27;;;4.28;;
34499;SDS011;20745;50.882;6.962;2022-09-13T03:43:13;12.18;;;4.55;;
34499;SDS011;20745;50.882;6.962;2022-09-13T03:45:50;10.93;;;3.95;;
34499;SDS011;20745;50.882;6.962;2022-09-13T03:48:20;11.98;;;4.45;;
34499;SDS011;20745;50.882;6.962;2022-09-13T03:50:49;12.00;;;4.47;;
34499;SDS011;20745;50.882;6.962;2022-09-13T03:53:18;12.20;;;4.70;;
34499;SDS011;20745;50.882;6.962;2022-09-13T03:55:49;12.50;;;4.47;;
34499;SDS011;20745;50.882;6.962;2022-09-13T03:58:17;13.18;;;4.72;;
34499;SDS011;20745;50.882;6.962;2022-09-13T04:00:46;16.00;;;4.50;;
34499;SDS011;20745;50.882;6.962;2022-09-13T04:03:13;12.20;;;4.15;;
34499;SDS011;20745;50.882;6.962;2022-09-13T04:05:41;13.73;;;4.57;;
34499;SDS011;20745;50.882;6.962;2022-09-13T04:08:08;12.13;;;4.60;;
34499;SDS011;20745;50.882;6.962;2022-09-13T04:10:35;12.73;;;4.47;;
34499;SDS011;20745;50.882;6.962;2022-09-13T04:13:03;12.73;;;4.57;;
34499;SDS011;20745;50.882;6.962;2022-09-13T04:15:30;10.15;;;4.63;;
34499;SDS011;20745;50.882;6.962;2022-09-13T04:17:57;11.57;;;4.20;;
34499;SDS011;20745;50.882;6.962;2022-09-13T04:20:25;11.05;;;4.07;;
34499;SDS011;20745;50.882;6.962;2022-09-13T04:22:52;11.02;;;4.43;;
34499;SDS011;20745;50.882;6.962;2022-09-13T04:25:20;12.02;;;4.47;;
34499;SDS011;20745;50.882;6.962;2022-09-13T04:27:57;13.63;;;4.47;;
34499;SDS011;20745;50.882;6.962;2022-09-13T04:30:26;11.50;;;4.30;;
34499;SDS011;20745;50.882;6.962;2022-09-13T04:32:53;14.82;;;4.85;;
34499;SDS011;20745;50.882;6.962;2022-09-13T04:35:22;11.93;;;4.32;;
34499;SDS011;20745;50.882;6.962;2022-09-13T04:37:49;10.85;;;4.30;;
34499;SDS011;20745;50.882;6.962;2022-09-13T04:40:16;12.48;;;4.68;;
34499;SDS011;20745;50.882;6.962;2022-09-13T04:42:43;11.13;;;3.80;;
34499;SDS011;20745;50.882;6.962;2022-09-13T04:45:10;11.52;;;4.57;;
34499;SDS011;20745;50.882;6.962;2022-09-13T04:47:37;14.88;;;4.78;;
34499;SDS011;20745;50.882;6.962;2022-09-13T04:50:04;15.35;;;4.80;;
34499;SDS011;20745;50.882;6.962;2022-09-13T04:52:32;15.32;;;4.35;;
34499;SDS011;20745;50.882;6.962;2022-09-13T04:54:59;14.68;;;4.50;;
34499;SDS011;20745;50.882;6.962;2022-09-13T04:57:27;12.77;;;4.72;;
34499;SDS011;20745;50.882;6.962;2022-09-13T04:59:54;13.70;;;5.03;;
34499;SDS011;20745;50.882;6.962;2022-09-13T05:02:21;11.35;;;4.57;;
34499;SDS011;20745;50.882;6.962;2022-09-13T05:04:48;13.27;;;4.38;;
34499;SDS011;20745;50.882;6.962;2022-09-13T05:07:15;14.18;;;5.10;;
34499;SDS011;20745;50.882;6.962;2022-09-13T05:09:43;13.38;;;5.05;;
34499;SDS011;20745;50.882;6.962;2022-09-13T05:12:10;16.23;;;4.80;;
34499;SDS011;20745;50.882;6.962;2022-09-13T05:14:37;15.45;;;5.35;;
34499;SDS011;20745;50.882;6.962;2022-09-13T05:17:04;17.75;;;5.30;;
34499;SDS011;20745;50.882;6.962;2022-09-13T05:19:31;12.15;;;4.72;;
34499;SDS011;20745;50.882;6.962;2022-09-13T05:21:58;14.70;;;4.93;;
34499;SDS011;20745;50.882;6.962;2022-09-13T05:24:26;16.15;;;5.05;;
34499;SDS011;20745;50.882;6.962;2022-09-13T05:26:53;14.20;;;5.22;;
34499;SDS011;20745;50.882;6.962;2022-09-13T05:29:20;14.70;;;5.35;;
34499;SDS011;20745;50.882;6.962;2022-09-13T05:31:47;13.82;;;5.30;;
34499;SDS011;20745;50.882;6.962;2022-09-13T05:34:14;13.90;;;5.30;;
34499;SDS011;20745;50.882;6.962;2022-09-13T05:36:43;12.88;;;4.75;;
34499;SDS011;20745;50.882;6.962;2022-09-13T05:39:13;13.50;;;5.05;;
34499;SDS011;20745;50.882;6.962;2022-09-13T05:42:03;16.80;;;5.50;;
34499;SDS011;20745;50.882;6.962;2022-09-13T05:44:30;13.60;;;5.18;;
34499;SDS011;20745;50.882;6.962;2022-09-13T05:46:57;16.50;;;5.90;;
34499;SDS011;20745;50.882;6.962;2022-09-13T05:49:24;15.00;;;5.20;;
34499;SDS011;20745;50.882;6.962;2022-09-13T05:51:51;15.35;;;5.45;;
34499;SDS011;20745;50.882;6.962;2022-09-13T05:54:18;15.07;;;5.28;;
34499;SDS011;20745;50.882;6.962;2022-09-13T05:56:45;18.15;;;4.75;;
34499;SDS011;20745;50.882;6.962;2022-09-13T05:59:12;12.13;;;4.43;;
34499;SDS011;20745;50.882;6.962;2022-09-13T06:01:40;13.77;;;4.78;;
34499;SDS011;20745;50.882;6.962;2022-09-13T06:04:07;15.40;;;4.15;;
34499;SDS011;20745;50.882;6.962;2022-09-13T06:06:34;11.70;;;3.90;;
34499;SDS011;20745;50.882;6.962;2022-09-13T06:09:02;11.20;;;4.00;;
34499;SDS011;20745;50.882;6.962;2022-09-13T06:11:31;10.25;;;3.78;;
34499;SDS011;20745;50.882;6.962;2022-09-13T06:13:58;15.55;;;4.47;;
34499;SDS011;20745;50.882;6.962;2022-09-13T06:16:25;12.38;;;4.28;;
34499;SDS011;20745;50.882;6.962;2022-09-13T06:18:52;11.13;;;4.25;;
34499;SDS011;20745;50.882;6.962;2022-09-13T06:21:20;13.57;;;4.80;;
34499;SDS011;20745;50.882;6.962;2022-09-13T06:23:54;15.30;;;4.03;;
34499;SDS011;20745;50.882;6.962;2022-09-13T06:26:22;14.80;;;4.43;;
34499;SDS011;20745;50.882;6.962;2022-09-13T06:31:42;13.57;;;4.65;;
34499;SDS011;20745;50.882;6.962;2022-09-13T06:34:11;14.20;;;4.13;;
34499;SDS011;20745;50.882;6.962;2022-09-13T06:36:43;13.57;;;4.85;;
34499;SDS011;20745;50.882;6.962;2022-09-13T06:39:09;14.15;;;4.25;;
34499;SDS011;20745;50.882;6.962;2022-09-13T06:41:36;13.07;;;4.60;;
34499;SDS011;20745;50.882;6.962;2022-09-13T06:44:04;14.23;;;4.20;;
34499;SDS011;20745;50.882;6.962;2022-09-13T06:46:34;12.90;;;4.40;;
34499;SDS011;20745;50.882;6.962;2022-09-13T06:49:02;11.93;;;4.63;;
34499;SDS011;20745;50.882;6.962;2022-09-13T06:51:31;9.93;;;3.83;;
34499;SDS011;20745;50.882;6.962;2022-09-13T06:54:00;13.20;;;4.10;;
34499;SDS011;20745;50.882;6.962;2022-09-13T06:56:30;12.48;;;4.38;;
34499;SDS011;20745;50.882;6.962;2022-09-13T06:58:59;10.93;;;4.03;;
34499;SDS011;20745;50.882;6.962;2022-09-13T07:03:59;15.52;;;4.90;;
34499;SDS011;20745;50.882;6.962;2022-09-13T07:06:43;12.75;;;3.83;;
34499;SDS011;20745;50.882;6.962;2022-09-13T07:09:15;15.05;;;4.53;;
34499;SDS011;20745;50.882;6.962;2022-09-13T07:11:44;12.10;;;4.38;;
34499;SDS011;20745;50.882;6.962;2022-09-13T07:14:19;12.32;;;4.30;;
34499;SDS011;20745;50.882;6.962;2022-09-13T07:16:51;14.60;;;4.60;;
34499;SDS011;20745;50.882;6.962;2022-09-13T07:19:19;13.95;;;4.55;;
34499;SDS011;20745;50.882;6.962;2022-09-13T07:21:52;13.50;;;4.18;;
34499;SDS011;20745;50.882;6.962;2022-09-13T07:24:20;12.93;;;4.47;;
34499;SDS011;20745;50.882;6.962;2022-09-13T07:26:48;13.30;;;4.07;;
34499;SDS011;20745;50.882;6.962;2022-09-13T07:29:16;13.25;;;4.60;;
34499;SDS011;20745;50.882;6.962;2022-09-13T07:31:46;11.07;;;4.00;;
34499;SDS011;20745;50.882;6.962;2022-09-13T07:36:43;15.13;;;4.47;;
34499;SDS011;20745;50.882;6.962;2022-09-13T07:39:12;12.65;;;4.10;;
34499;SDS011;20745;50.882;6.962;2022-09-13T07:41:46;13.90;;;4.50;;
34499;SDS011;20745;50.882;6.962;2022-09-13T07:44:13;15.93;;;4.50;;
34499;SDS011;20745;50.882;6.962;2022-09-13T07:46:40;13.10;;;4.18;;
34499;SDS011;20745;50.882;6.962;2022-09-13T07:49:12;14.32;;;4.20;;
34499;SDS011;20745;50.882;6.962;2022-09-13T07:51:42;12.50;;;3.95;;
34499;SDS011;20745;50.882;6.962;2022-09-13T07:54:13;17.25;;;4.43;;
34499;SDS011;20745;50.882;6.962;2022-09-13T07:56:43;13.00;;;4.15;;
34499;SDS011;20745;50.882;6.962;2022-09-13T07:59:14;11.30;;;3.92;;
34499;SDS011;20745;50.882;6.962;2022-09-13T08:01:43;11.77;;;3.42;;
34499;SDS011;20745;50.882;6.962;2022-09-13T08:04:16;12.52;;;3.80;;
34499;SDS011;20745;50.882;6.962;2022-09-13T08:06:45;14.55;;;3.90;;
34499;SDS011;20745;50.882;6.962;2022-09-13T08:09:12;11.95;;;4.05;;
34499;SDS011;20745;50.882;6.962;2022-09-13T08:11:41;10.93;;;3.95;;
34499;SDS011;20745;50.882;6.962;2022-09-13T08:14:11;9.63;;;3.38;;
34499;SDS011;20745;50.882;6.962;2022-09-13T08:16:39;11.93;;;3.78;;
34499;SDS011;20745;50.882;6.962;2022-09-13T08:19:07;9.98;;;3.92;;
34499;SDS011;20745;50.882;6.962;2022-09-13T08:21:38;12.50;;;3.85;;
34499;SDS011;20745;50.882;6.962;2022-09-13T08:24:06;10.85;;;3.35;;
34499;SDS011;20745;50.882;6.962;2022-09-13T08:26:38;11.30;;;3.50;;
34499;SDS011;20745;50.882;6.962;2022-09-13T08:29:05;10.20;;;3.60;;
34499;SDS011;20745;50.882;6.962;2022-09-13T08:31:33;12.13;;;3.58;;
34499;SDS011;20745;50.882;6.962;2022-09-13T08:34:00;12.02;;;3.60;;
34499;SDS011;20745;50.882;6.962;2022-09-13T08:36:27;14.95;;;3.72;;
34499;SDS011;20745;50.882;6.962;2022-09-13T08:38:56;10.00;;;3.40;;
34499;SDS011;20745;50.882;6.962;2022-09-13T08:49:42;9.98;;;3.58;;
34499;SDS011;20745;50.882;6.962;2022-09-13T08:54:51;13.77;;;3.45;;
34499;SDS011;20745;50.882;6.962;2022-09-13T09:02:47;13.25;;;3.15;;
34499;SDS011;20745;50.882;6.962;2022-09-13T09:05:56;12.85;;;3.40;;
34499;SDS011;20745;50.882;6.962;2022-09-13T09:08:35;8.80;;;3.33;;
34499;SDS011;20745;50.882;6.962;2022-09-13T09:14:07;12.45;;;3.30;;
34499;SDS011;20745;50.882;6.962;2022-09-13T09:16:47;9.73;;;3.20;;
34499;SDS011;20745;50.882;6.962;2022-09-13T09:19:21;10.23;;;3.13;;
34499;SDS011;20745;50.882;6.962;2022-09-13T09:21:55;8.63;;;3.15;;
34499;SDS011;20745;50.882;6.962;2022-09-13T09:24:24;15.40;;;3.08;;
34499;SDS011;20745;50.882;6.962;2022-09-13T09:26:52;8.40;;;2.85;;
34499;SDS011;20745;50.882;6.962;2022-09-13T09:29:26;7.80;;;2.60;;
34499;SDS011;20745;50.882;6.962;2022-09-13T09:32:11;8.80;;;2.63;;
34499;SDS011;20745;50.882;6.962;2022-09-13T09:35:20;8.15;;;2.63;;
34499;SDS011;20745;50.882;6.962;2022-09-13T09:41:14;9.52;;;2.40;;
34499;SDS011;20745;50.882;6.962;2022-09-13T09:43:49;7.97;;;2.40;;
34499;SDS011;20745;50.882;6.962;2022-09-13T09:46:19;7.70;;;2.35;;
34499;SDS011;20745;50.882;6.962;2022-09-13T09:48:51;10.02;;;2.83;;
34499;SDS011;20745;50.882;6.962;2022-09-13T09:51:22;9.30;;;2.55;;
34499;SDS011;20745;50.882;6.962;2022-09-13T09:53:53;7.80;;;2.50;;
34499;SDS011;20745;50.882;6.962;2022-09-13T09:56:29;6.65;;;2.30;;
34499;SDS011;20745;50.882;6.962;2022-09-13T09:58:59;7.10;;;2.30;;
34499;SDS011;20745;50.882;6.962;2022-09-13T10:01:31;13.32;;;2.97;;
34499;SDS011;20745;50.882;6.962;2022-09-13T10:04:02;10.90;;;2.60;;
34499;SDS011;20745;50.882;6.962;2022-09-13T10:06:37;7.97;;;2.65;;
34499;SDS011;20745;50.882;6.962;2022-09-13T10:11:47;14.43;;;2.97;;
34499;SDS011;20745;50.882;6.962;2022-09-13T10:14:26;9.10;;;3.05;;
34499;SDS011;20745;50.882;6.962;2022-09-13T10:19:53;10.07;;;2.67;;
34499;SDS011;20745;50.882;6.962;2022-09-13T10:22:24;9.13;;;2.45;;
34499;SDS011;20745;50.882;6.962;2022-09-13T10:24:52;11.00;;;2.50;;
34499;SDS011;20745;50.882;6.962;2022-09-13T10:29:53;8.23;;;2.70;;
34499;SDS011;20745;50.882;6.962;2022-09-13T10:32:25;8.60;;;2.28;;
34499;SDS011;20745;50.882;6.962;2022-09-13T10:34:54;7.90;;;2.40;;
34499;SDS011;20745;50.882;6.962;2022-09-13T10:37:27;6.35;;;2.13;;
34499;SDS011;20745;50.882;6.962;2022-09-13T10:42:31;10.43;;;2.50;;
34499;SDS011;20745;50.882;6.962;2022-09-13T10:45:03;7.38;;;2.20;;
34499;SDS011;20745;50.882;6.962;2022-09-13T10:47:33;7.47;;;2.40;;
34499;SDS011;20745;50.882;6.962;2022-09-13T10:50:24;11.70;;;2.65;;
34499;SDS011;20745;50.882;6.962;2022-09-13T10:52:56;9.48;;;2.47;;
34499;SDS011;20745;50.882;6.962;2022-09-13T11:00:32;12.60;;;2.33;;
34499;SDS011;20745;50.882;6.962;2022-09-13T11:03:06;5.10;;;2.00;;
34499;SDS011;20745;50.882;6.962;2022-09-13T11:05:49;6.57;;;2.00;;
34499;SDS011;20745;50.882;6.962;2022-09-13T11:08:41;8.30;;;2.45;;
34499;SDS011;20745;50.882;6.962;2022-09-13T11:12:03;13.23;;;2.63;;
34499;SDS011;20745;50.882;6.962;2022-09-13T11:14:40;7.95;;;2.13;;
34499;SDS011;20745;50.882;6.962;2022-09-13T11:17:28;5.22;;;1.95;;
34499;SDS011;20745;50.882;6.962;2022-09-13T11:29:19;6.50;;;1.65;;
34499;SDS011;20745;50.882;6.962;2022-09-13T11:31:42;5.95;;;1.90;;
34499;SDS011;20745;50.882;6.962;2022-09-13T11:37:14;6.97;;;1.77;;
34499;SDS011;20745;50.882;6.962;2022-09-13T11:39:57;6.10;;;1.77;;
34499;SDS011;20745;50.882;6.962;2022-09-13T11:42:40;7.20;;;2.30;;
34499;SDS011;20745;50.882;6.962;2022-09-13T11:45:18;6.47;;;2.00;;
34499;SDS011;20745;50.882;6.962;2022-09-13T11:54:09;7.30;;;1.83;;
34499;SDS011;20745;50.882;6.962;2022-09-13T11:56:54;7.38;;;1.60;;
34499;SDS011;20745;50.882;6.962;2022-09-13T11:59:48;5.95;;;2.10;;
34499;SDS011;20745;50.882;6.962;2022-09-13T12:02:44;9.03;;;1.67;;
34499;SDS011;20745;50.882;6.962;2022-09-13T12:05:40;5.70;;;1.73;;
34499;SDS011;20745;50.882;6.962;2022-09-13T12:08:36;5.40;;;1.70;;
34499;SDS011;20745;50.882;6.962;2022-09-13T12:11:32;8.00;;;1.95;;
34499;SDS011;20745;50.882;6.962;2022-09-13T12:14:22;6.15;;;1.70;;
34499;SDS011;20745;50.882;6.962;2022-09-13T12:17:48;5.35;;;1.70;;
34499;SDS011;20745;50.882;6.962;2022-09-13T12:20:18;5.03;;;2.20;;
34499;SDS011;20745;50.882;6.962;2022-09-13T12:22:53;5.22;;;1.80;;
34499;SDS011;20745;50.882;6.962;2022-09-13T12:25:24;5.38;;;1.90;;
34499;SDS011;20745;50.882;6.962;2022-09-13T12:28:44;5.95;;;1.52;;
34499;SDS011;20745;50.882;6.962;2022-09-13T12:31:32;5.20;;;1.70;;
34499;SDS011;20745;50.882;6.962;2022-09-13T12:33:59;7.95;;;1.60;;
34499;SDS011;20745;50.882;6.962;2022-09-13T12:36:51;5.45;;;1.70;;
34499;SDS011;20745;50.882;6.962;2022-09-13T13:02:21;9.85;;;1.90;;
34499;SDS011;20745;50.882;6.962;2022-09-13T13:05:17;6.03;;;1.75;;
34499;SDS011;20745;50.882;6.962;2022-09-13T13:07:49;7.20;;;2.00;;
34499;SDS011;20745;50.882;6.962;2022-09-13T13:10:29;6.80;;;1.73;;
34499;SDS011;20745;50.882;6.962;2022-09-13T13:13:09;7.30;;;1.70;;
34499;SDS011;20745;50.882;6.962;2022-09-13T13:18:20;10.40;;;1.77;;
34499;SDS011;20745;50.882;6.962;2022-09-13T13:23:21;6.18;;;1.83;;
34499;SDS011;20745;50.882;6.962;2022-09-13T13:26:06;5.95;;;1.67;;
34499;SDS011;20745;50.882;6.962;2022-09-13T13:36:55;7.57;;;1.77;;
34499;SDS011;20745;50.882;6.962;2022-09-13T13:39:48;7.95;;;1.98;;
34499;SDS011;20745;50.882;6.962;2022-09-13T13:42:36;9.02;;;1.95;;
34499;SDS011;20745;50.882;6.962;2022-09-13T13:45:13;6.13;;;1.77;;
34499;SDS011;20745;50.882;6.962;2022-09-13T13:47:54;7.35;;;1.80;;
34499;SDS011;20745;50.882;6.962;2022-09-13T13:51:12;7.22;;;1.75;;
34499;SDS011;20745;50.882;6.962;2022-09-13T13:54:00;6.35;;;2.17;;
34499;SDS011;20745;50.882;6.962;2022-09-13T13:56:48;7.47;;;2.20;;
34499;SDS011;20745;50.882;6.962;2022-09-13T13:59:18;12.50;;;2.50;;
34499;SDS011;20745;50.882;6.962;2022-09-13T14:01:50;7.82;;;1.98;;
34499;SDS011;20745;50.882;6.962;2022-09-13T14:04:29;9.38;;;2.28;;
34499;SDS011;20745;50.882;6.962;2022-09-13T14:07:11;9.30;;;1.80;;
34499;SDS011;20745;50.882;6.962;2022-09-13T14:10:09;6.20;;;1.65;;
34499;SDS011;20745;50.882;6.962;2022-09-13T14:16:16;9.50;;;2.25;;
34499;SDS011;20745;50.882;6.962;2022-09-13T14:19:29;9.15;;;2.08;;
34499;SDS011;20745;50.882;6.962;2022-09-13T14:22:17;9.50;;;2.05;;
34499;SDS011;20745;50.882;6.962;2022-09-13T14:24:47;4.68;;;1.60;;
34499;SDS011;20745;50.882;6.962;2022-09-13T14:27:27;5.82;;;1.80;;
34499;SDS011;20745;50.882;6.962;2022-09-13T14:32:52;13.77;;;2.33;;
34499;SDS011;20745;50.882;6.962;2022-09-13T14:35:28;8.50;;;1.92;;
34499;SDS011;20745;50.882;6.962;2022-09-13T14:38:23;8.43;;;2.05;;
34499;SDS011;20745;50.882;6.962;2022-09-13T14:47:07;7.82;;;2.15;;
34499;SDS011;20745;50.882;6.962;2022-09-13T14:49:45;6.88;;;1.83;;
34499;SDS011;20745;50.882;6.962;2022-09-13T14:54:56;4.70;;;1.50;;
34499;SDS011;20745;50.882;6.962;2022-09-13T14:57:30;9.52;;;1.85;;
34499;SDS011;20745;50.882;6.962;2022-09-13T15:00:05;7.57;;;1.67;;
34499;SDS011;20745;50.882;6.962;2022-09-13T15:02:43;8.07;;;1.75;;
34499;SDS011;20745;50.882;6.962;2022-09-13T15:05:37;9.60;;;1.70;;
34499;SDS011;20745;50.882;6.962;2022-09-13T15:10:51;9.18;;;1.75;;
34499;SDS011;20745;50.882;6.962;2022-09-13T15:13:37;13.70;;;2.25;;
34499;SDS011;20745;50.882;6.962;2022-09-13T15:16:22;5.05;;;1.80;;
34499;SDS011;20745;50.882;6.962;2022-09-13T15:19:13;9.38;;;1.67;;
34499;SDS011;20745;50.882;6.962;2022-09-13T15:22:02;10.30;;;1.90;;
34499;SDS011;20745;50.882;6.962;2022-09-13T15:24:32;5.72;;;1.80;;
34499;SDS011;20745;50.882;6.962;2022-09-13T15:27:04;8.68;;;1.88;;
34499;SDS011;20745;50.882;6.962;2022-09-13T15:29:33;3.80;;;1.35;;
34499;SDS011;20745;50.882;6.962;2022-09-13T15:32:22;11.23;;;2.00;;
34499;SDS011;20745;50.882;6.962;2022-09-13T15:34:55;6.15;;;1.73;;
34499;SDS011;20745;50.882;6.962;2022-09-13T15:37:27;5.97;;;1.67;;
34499;SDS011;20745;50.882;6.962;2022-09-13T15:40:13;4.13;;;1.70;;
34499;SDS011;20745;50.882;6.962;2022-09-13T15:42:46;9.43;;;1.70;;
34499;SDS011;20745;50.882;6.962;2022-09-13T15:45:15;7.75;;;1.70;;
34499;SDS011;20745;50.882;6.962;2022-09-13T15:47:43;5.28;;;1.60;;
34499;SDS011;20745;50.882;6.962;2022-09-13T15:53:04;7.43;;;1.75;;
34499;SDS011;20745;50.882;6.962;2022-09-13T15:55:37;5.45;;;1.70;;
34499;SDS011;20745;50.882;6.962;2022-09-13T15:58:05;5.88;;;1.80;;
34499;SDS011;20745;50.882;6.962;2022-09-13T16:00:32;7.03;;;1.88;;
34499;SDS011;20745;50.882;6.962;2022-09-13T16:02:59;7.35;;;2.03;;
34499;SDS011;20745;50.882;6.962;2022-09-13T16:05:44;7.20;;;2.17;;
34499;SDS011;20745;50.882;6.962;2022-09-13T16:08:11;5.30;;;1.80;;
34499;SDS011;20745;50.882;6.962;2022-09-13T16:10:38;9.85;;;2.17;;
34499;SDS011;20745;50.882;6.962;2022-09-13T16:13:05;11.75;;;2.67;;
34499;SDS011;20745;50.882;6.962;2022-09-13T16:15:32;6.18;;;1.83;;
34499;SDS011;20745;50.882;6.962;2022-09-13T16:18:18;8.15;;;1.98;;
34499;SDS011;20745;50.882;6.962;2022-09-13T16:20:45;8.88;;;2.17;;
34499;SDS011;20745;50.882;6.962;2022-09-13T16:23:13;6.63;;;1.90;;
34499;SDS011;20745;50.882;6.962;2022-09-13T16:25:40;7.57;;;1.75;;
34499;SDS011;20745;50.882;6.962;2022-09-13T16:28:26;6.97;;;1.60;;
34499;SDS011;20745;50.882;6.962;2022-09-13T16:30:53;9.60;;;2.10;;
34499;SDS011;20745;50.882;6.962;2022-09-13T16:33:20;8.23;;;2.10;;
34499;SDS011;20745;50.882;6.962;2022-09-13T16:35:48;5.85;;;1.95;;
34499;SDS011;20745;50.882;6.962;2022-09-13T16:38:15;6.07;;;1.90;;
34499;SDS011;20745;50.882;6.962;2022-09-13T16:40:42;8.45;;;2.10;;
34499;SDS011;20745;50.882;6.962;2022-09-13T16:43:21;10.70;;;2.10;;
34499;SDS011;20745;50.882;6.962;2022-09-13T16:45:48;6.20;;;2.08;;
34499;SDS011;20745;50.882;6.962;2022-09-13T16:48:17;7.03;;;1.83;;
34499;SDS011;20745;50.882;6.962;2022-09-13T16:50:44;6.18;;;1.98;;
34499;SDS011;20745;50.882;6.962;2022-09-13T16:53:30;7.82;;;2.05;;
34499;SDS011;20745;50.882;6.962;2022-09-13T16:56:14;6.65;;;2.20;;
34499;SDS011;20745;50.882;6.962;2022-09-13T16:58:43;7.07;;;2.40;;
34499;SDS011;20745;50.882;6.962;2022-09-13T17:01:16;11.95;;;2.67;;
34499;SDS011;20745;50.882;6.962;2022-09-13T17:03:44;12.23;;;2.75;;
34499;SDS011;20745;50.882;6.962;2022-09-13T17:06:12;10.65;;;2.33;;
34499;SDS011;20745;50.882;6.962;2022-09-13T17:08:41;10.10;;;2.33;;
34499;SDS011;20745;50.882;6.962;2022-09-13T17:11:13;10.27;;;2.38;;
34499;SDS011;20745;50.882;6.962;2022-09-13T17:13:41;13.10;;;2.95;;
34499;SDS011;20745;50.882;6.962;2022-09-13T17:16:18;12.93;;;2.65;;
34499;SDS011;20745;50.882;6.962;2022-09-13T17:18:51;13.82;;;3.17;;
34499;SDS011;20745;50.882;6.962;2022-09-13T17:21:19;10.85;;;2.95;;
34499;SDS011;20745;50.882;6.962;2022-09-13T17:23:47;11.02;;;2.90;;
34499;SDS011;20745;50.882;6.962;2022-09-13T17:26:15;9.82;;;2.80;;
34499;SDS011;20745;50.882;6.962;2022-09-13T17:29:00;11.05;;;2.58;;
34499;SDS011;20745;50.882;6.962;2022-09-13T17:31:27;8.70;;;2.58;;
34499;SDS011;20745;50.882;6.962;2022-09-13T17:33:54;10.30;;;2.80;;
34499;SDS011;20745;50.882;6.962;2022-09-13T17:36:21;8.82;;;2.88;;
34499;SDS011;20745;50.882;6.962;2022-09-13T17:39:07;11.73;;;2.78;;
34499;SDS011;20745;50.882;6.962;2022-09-13T17:41:34;11.10;;;3.08;;
34499;SDS011;20745;50.882;6.962;2022-09-13T17:44:02;8.98;;;3.42;;
34499;SDS011;20745;50.882;6.962;2022-09-13T17:46:29;8.93;;;3.00;;
34499;SDS011;20745;50.882;6.962;2022-09-13T17:48:57;11.93;;;3.53;;
34499;SDS011;20745;50.882;6.962;2022-09-13T17:51:43;12.25;;;3.67;;
34499;SDS011;20745;50.882;6.962;2022-09-13T17:54:11;12.32;;;3.85;;
34499;SDS011;20745;50.882;6.962;2022-09-13T17:56:39;12.45;;;3.80;;
34499;SDS011;20745;50.882;6.962;2022-09-13T17:59:09;15.15;;;3.75;;